Terminal Aerodrome Forecast
Issued by NWS Grand Forks, ND

Home | Current Version | Previous Version | Graphics & Text | Print | Product List | Glossary On
Versions: 1 2 3 4 5 6 7 8 9 10 11 12
000
FTUS43 KFGF 101700
TAFFAR
TAF
KFAR 101720Z 1018/1118 17013G20KT P6SM BKN250
     FM110100 17009KT P6SM SCT200
     FM111500 25005KT P6SM SCT050 BKN250=

USA.gov is the U.S. government's official web portal to all federal, state and local government web resources and services.